Time;durP1;ratioP1;P1;durP2;ratioP2;P2;SDS_P1;SDS_P2;PMS_P1;PMS_P2;Temp;Humidity;BMP_temperature;BMP_pressure;BME280_temperature;BME280_humidity;BME280_pressure;Samples;Min_cycle;Max_cycle;Signal;HPM_P1;HPM_P2
2021/03/18 00:00:46;;;;;;;5.83;3.37;;;3.60;99.90;;;;;;4983324;28;20804;-59
2021/03/18 00:03:15;;;;;;;5.77;3.93;;;3.60;99.90;;;;;;4984959;28;20522;-60
2021/03/18 00:05:44;;;;;;;4.30;2.90;;;3.60;99.90;;;;;;4983828;28;20812;-58
2021/03/18 00:08:14;;;;;;;5.57;2.80;;;3.60;99.90;;;;;;4983720;28;20454;-59
2021/03/18 00:10:44;;;;;;;5.40;2.80;;;3.60;99.90;;;;;;4984957;28;20454;-60
2021/03/18 00:13:16;;;;;;;7.00;3.60;;;3.60;99.90;;;;;;4984697;28;20761;-59
2021/03/18 00:15:45;;;;;;;6.40;3.50;;;3.50;99.90;;;;;;4984264;28;20787;-58
2021/03/18 00:18:16;;;;;;;5.83;3.37;;;3.50;99.90;;;;;;4984194;28;20477;-58
2021/03/18 00:20:45;;;;;;;5.47;3.17;;;3.50;99.90;;;;;;4984026;28;20791;-59
2021/03/18 00:23:15;;;;;;;3.43;2.90;;;3.50;99.90;;;;;;4984117;28;20470;-58
2021/03/18 00:25:43;;;;;;;4.80;2.80;;;3.40;99.90;;;;;;4983952;28;20803;-60
2021/03/18 00:28:12;;;;;;;5.13;3.23;;;3.40;99.90;;;;;;4984191;28;20820;-59
2021/03/18 00:30:40;;;;;;;8.73;3.80;;;3.40;99.90;;;;;;4984699;28;20455;-58
2021/03/18 00:33:09;;;;;;;6.40;3.13;;;3.40;99.90;;;;;;4984598;28;20807;-58
2021/03/18 00:35:38;;;;;;;6.27;3.30;;;3.30;99.90;;;;;;4984720;28;20810;-52
2021/03/18 00:38:07;;;;;;;5.37;3.10;;;3.30;99.90;;;;;;4985358;28;20470;-52
2021/03/18 00:40:41;;;;;;;4.90;3.07;;;3.30;99.90;;;;;;4984640;28;20784;-60
2021/03/18 00:43:11;;;;;;;5.83;3.60;;;3.30;99.90;;;;;;4983738;28;20470;-59
2021/03/18 00:45:43;;;;;;;6.53;3.43;;;3.30;99.90;;;;;;4985067;28;20769;-59
2021/03/18 00:48:12;;;;;;;4.50;3.13;;;3.20;99.90;;;;;;4985301;28;20928;-59
2021/03/18 00:50:43;;;;;;;3.80;2.90;;;3.20;99.90;;;;;;4984635;28;20823;-59
2021/03/18 00:53:16;;;;;;;4.93;3.70;;;3.20;99.90;;;;;;4984689;28;20471;-59
2021/03/18 00:55:46;;;;;;;5.93;4.03;;;3.10;99.90;;;;;;4984166;28;20502;-59
2021/03/18 00:58:15;;;;;;;5.27;3.30;;;3.10;99.90;;;;;;4984451;28;20784;-59
2021/03/18 01:00:46;;;;;;;4.80;3.17;;;3.10;99.90;;;;;;4983683;28;20797;-58
2021/03/18 01:03:15;;;;;;;6.40;3.50;;;3.10;99.90;;;;;;4983939;28;20470;-54
2021/03/18 01:05:47;;;;;;;5.33;3.20;;;3.00;99.90;;;;;;4984132;28;20816;-59
2021/03/18 01:08:17;;;;;;;5.20;4.27;;;3.10;99.90;;;;;;4983554;28;20455;-57
2021/03/18 01:10:48;;;;;;;7.60;3.43;;;3.00;99.90;;;;;;4984381;28;20766;-56
2021/03/18 01:13:19;;;;;;;6.80;3.23;;;3.00;99.90;;;;;;4984534;28;20787;-59
2021/03/18 01:15:49;;;;;;;4.90;3.23;;;3.00;99.90;;;;;;4984686;28;20970;-54
2021/03/18 01:18:18;;;;;;;6.43;3.63;;;3.10;99.90;;;;;;4983790;28;20825;-57
2021/03/18 01:20:47;;;;;;;9.13;3.37;;;3.10;99.90;;;;;;4984572;28;20469;-58
2021/03/18 01:23:16;;;;;;;8.70;3.67;;;3.00;99.90;;;;;;4984140;28;20467;-57
2021/03/18 01:25:45;;;;;;;5.67;3.60;;;3.00;99.90;;;;;;4984078;28;20478;-57
2021/03/18 01:28:14;;;;;;;6.13;4.40;;;2.90;99.90;;;;;;4984374;28;20928;-54
2021/03/18 01:30:43;;;;;;;6.40;4.33;;;2.90;99.90;;;;;;4984484;28;20457;-53
2021/03/18 01:33:12;;;;;;;6.60;3.80;;;2.90;99.90;;;;;;4984334;28;20466;-58
2021/03/18 01:35:40;;;;;;;10.77;5.00;;;2.90;99.90;;;;;;4983660;28;20991;-59
2021/03/18 01:38:09;;;;;;;7.53;4.47;;;2.90;99.90;;;;;;4984298;28;20843;-59
2021/03/18 01:40:37;;;;;;;6.07;4.90;;;2.90;99.90;;;;;;4983634;28;20506;-58
2021/03/18 01:43:07;;;;;;;4.50;3.73;;;2.90;99.90;;;;;;4983912;28;20455;-59
2021/03/18 01:45:36;;;;;;;8.37;4.20;;;2.90;99.90;;;;;;4984619;28;20804;-59
2021/03/18 01:48:05;;;;;;;7.33;4.30;;;2.90;99.90;;;;;;4983605;28;20789;-56
2021/03/18 01:50:36;;;;;;;9.70;4.27;;;2.90;99.90;;;;;;4984043;28;20769;-57
2021/03/18 01:53:06;;;;;;;7.37;4.73;;;3.00;99.90;;;;;;4983020;28;20795;-59
2021/03/18 01:55:37;;;;;;;8.57;5.10;;;3.00;99.90;;;;;;4983063;28;20788;-58
2021/03/18 01:58:08;;;;;;;8.07;4.83;;;3.00;99.90;;;;;;4983767;28;20463;-58
2021/03/18 02:00:38;;;;;;;9.93;6.10;;;3.00;99.90;;;;;;4984035;28;20766;-59
2021/03/18 02:03:07;;;;;;;4.73;3.90;;;3.00;99.90;;;;;;4984123;28;20458;-59
2021/03/18 02:05:36;;;;;;;5.90;4.90;;;3.10;99.90;;;;;;4984134;28;20882;-56
2021/03/18 02:08:05;;;;;;;6.27;5.00;;;3.10;99.90;;;;;;4983655;28;20455;-58
2021/03/18 02:10:35;;;;;;;6.07;4.30;;;3.10;99.90;;;;;;4982998;28;20454;-59
2021/03/18 02:13:08;;;;;;;5.90;5.00;;;3.10;99.90;;;;;;4983127;28;20840;-59
2021/03/18 02:15:38;;;;;;;5.70;4.77;;;3.10;99.90;;;;;;4983868;28;20845;-59
2021/03/18 02:18:13;;;;;;;9.67;5.67;;;3.10;99.90;;;;;;4982505;28;20815;-59
2021/03/18 02:21:28;;;;;;;6.83;5.23;;;3.10;99.90;;;;;;4982620;28;20862;-56
2021/03/18 02:24:30;;;;;;;6.90;4.50;;;3.10;99.90;;;;;;4983548;28;20461;-58
2021/03/18 02:27:38;;;;;;;7.10;4.30;;;3.10;99.90;;;;;;4977786;28;20470;-58
2021/03/18 02:30:40;;;;;;;8.70;4.60;;;3.10;99.90;;;;;;4982748;28;20815;-59
2021/03/18 02:33:28;;;;;;;6.90;3.53;;;3.10;99.90;;;;;;4982734;28;20796;-59
2021/03/18 02:36:03;;;;;;;6.27;5.03;;;3.10;99.90;;;;;;4982548;28;20526;-53
2021/03/18 02:38:33;;;;;;;7.60;4.30;;;3.10;99.90;;;;;;4982647;28;20470;-53
2021/03/18 02:41:07;;;;;;;5.73;4.37;;;3.10;99.90;;;;;;4982711;28;20752;-54
2021/03/18 02:43:42;;;;;;;5.33;3.73;;;3.10;99.90;;;;;;4982495;28;20765;-59
2021/03/18 02:46:12;;;;;;;5.90;4.20;;;3.20;99.90;;;;;;4981927;28;20927;-60
2021/03/18 02:48:41;;;;;;;9.37;4.13;;;3.20;99.90;;;;;;4981701;28;20792;-58
2021/03/18 02:51:15;;;;;;;7.27;4.73;;;3.20;99.90;;;;;;4981437;28;20812;-58
2021/03/18 02:53:45;;;;;;;12.53;4.77;;;3.20;99.90;;;;;;4981506;28;20813;-58
2021/03/18 02:56:17;;;;;;;8.53;4.60;;;3.20;99.90;;;;;;4981043;28;20863;-58
2021/03/18 02:58:48;;;;;;;7.37;5.00;;;3.20;99.90;;;;;;4980980;28;20474;-54
2021/03/18 03:01:17;;;;;;;7.50;4.93;;;3.20;99.90;;;;;;4982273;28;20920;-55
2021/03/18 03:03:47;;;;;;;5.40;4.20;;;3.20;99.90;;;;;;4981713;28;20809;-56
2021/03/18 03:06:19;;;;;;;5.47;3.27;;;3.20;99.90;;;;;;4981509;28;20799;-59
2021/03/18 03:08:49;;;;;;;5.70;3.77;;;3.20;99.90;;;;;;4981329;28;20837;-57
2021/03/18 03:11:22;;;;;;;4.93;3.60;;;3.20;99.90;;;;;;4982008;28;20856;-60
2021/03/18 03:13:52;;;;;;;7.93;4.37;;;3.20;99.90;;;;;;4981837;28;20808;-59
2021/03/18 03:16:23;;;;;;;6.73;4.07;;;3.20;99.90;;;;;;4981600;28;20467;-54
2021/03/18 03:18:53;;;;;;;5.20;4.10;;;3.30;99.90;;;;;;4981708;28;20784;-59
2021/03/18 03:21:24;;;;;;;5.93;4.23;;;3.30;99.90;;;;;;4982179;28;20454;-57
2021/03/18 03:23:53;;;;;;;4.93;4.10;;;3.30;99.90;;;;;;4980986;28;20538;-58
2021/03/18 03:26:24;;;;;;;8.50;5.00;;;3.30;99.90;;;;;;4981690;28;20845;-58
2021/03/18 03:28:54;;;;;;;6.33;4.57;;;3.30;99.90;;;;;;4981491;28;20458;-58
2021/03/18 03:31:23;;;;;;;6.57;4.30;;;3.30;99.90;;;;;;4983705;28;20811;-59
2021/03/18 03:33:51;;;;;;;4.23;3.60;;;3.40;99.90;;;;;;4985898;28;20803;-59
2021/03/18 03:36:20;;;;;;;5.63;4.67;;;3.40;99.90;;;;;;4985907;28;20844;-60
2021/03/18 03:38:50;;;;;;;6.90;5.00;;;3.40;99.90;;;;;;4985845;28;20832;-60
2021/03/18 03:41:18;;;;;;;6.50;3.97;;;3.40;99.90;;;;;;4984400;28;20535;-59
2021/03/18 03:43:47;;;;;;;8.30;5.33;;;3.40;99.90;;;;;;4984666;28;20838;-56
2021/03/18 03:46:16;;;;;;;8.07;5.40;;;3.30;99.90;;;;;;4985248;28;20473;-59
2021/03/18 03:48:44;;;;;;;5.90;4.40;;;3.30;99.90;;;;;;4985366;28;20482;-53
2021/03/18 03:51:13;;;;;;;6.37;4.73;;;3.30;99.90;;;;;;4985430;28;20824;-53
2021/03/18 03:53:46;;;;;;;9.63;5.20;;;3.20;99.90;;;;;;4985410;28;20879;-56
2021/03/18 03:56:21;;;;;;;5.17;4.10;;;3.20;99.90;;;;;;4985968;28;20870;-58
2021/03/18 03:58:53;;;;;;;8.60;4.03;;;3.20;99.90;;;;;;4985581;28;20453;-59
2021/03/18 04:01:28;;;;;;;4.50;3.60;;;3.20;99.90;;;;;;4985616;28;20875;-60
2021/03/18 04:04:10;;;;;;;4.73;3.60;;;3.20;99.90;;;;;;4985862;28;20454;-57
2021/03/18 04:06:39;;;;;;;7.83;4.37;;;3.20;99.90;;;;;;4985884;28;20769;-57
2021/03/18 04:09:09;;;;;;;6.33;5.07;;;3.10;99.90;;;;;;4986207;28;20738;-54
2021/03/18 04:11:41;;;;;;;5.13;3.60;;;3.10;99.90;;;;;;4986146;28;20475;-61
2021/03/18 04:14:12;;;;;;;7.10;4.43;;;3.10;99.90;;;;;;4985457;28;21005;-58
2021/03/18 04:16:44;;;;;;;6.27;4.70;;;3.10;99.90;;;;;;4984922;28;20791;-54
2021/03/18 04:19:16;;;;;;;7.03;4.20;;;3.10;99.90;;;;;;4985221;28;20808;-58
2021/03/18 04:21:47;;;;;;;7.73;4.87;;;3.10;99.90;;;;;;4985125;28;20459;-58
2021/03/18 04:24:16;;;;;;;9.57;4.53;;;3.20;99.90;;;;;;4984933;28;20792;-51
2021/03/18 04:26:48;;;;;;;6.20;4.50;;;3.20;99.90;;;;;;4984223;28;20478;-59
2021/03/18 04:29:18;;;;;;;11.80;5.40;;;3.30;99.90;;;;;;4984205;28;20465;-54
2021/03/18 04:31:47;;;;;;;7.03;4.90;;;3.30;99.90;;;;;;4984889;28;20808;-56
2021/03/18 04:34:18;;;;;;;6.67;4.67;;;3.30;99.90;;;;;;4983321;28;20573;-58
2021/03/18 04:36:46;;;;;;;6.63;4.97;;;3.30;99.90;;;;;;4983723;28;20483;-59
2021/03/18 04:39:16;;;;;;;12.27;5.80;;;3.30;99.90;;;;;;4983970;28;20826;-59
2021/03/18 04:41:47;;;;;;;6.60;5.60;;;3.30;99.90;;;;;;4984418;28;20777;-51
2021/03/18 04:44:16;;;;;;;8.50;5.70;;;3.30;99.90;;;;;;4983995;28;20465;-58
2021/03/18 04:46:47;;;;;;;9.80;5.47;;;3.30;99.90;;;;;;4984039;28;20800;-54
2021/03/18 04:49:17;;;;;;;9.07;6.13;;;3.30;99.90;;;;;;4983999;28;20803;-57
2021/03/18 04:51:46;;;;;;;9.30;5.30;;;3.30;99.90;;;;;;4983549;28;20839;-56
2021/03/18 04:54:15;;;;;;;8.93;5.83;;;3.30;99.90;;;;;;4983077;28;20797;-60
2021/03/18 04:56:47;;;;;;;14.73;7.40;;;3.30;99.90;;;;;;4984329;28;20463;-55
2021/03/18 04:59:17;;;;;;;11.60;7.30;;;3.30;99.90;;;;;;4983592;28;21014;-56
2021/03/18 05:01:48;;;;;;;13.40;7.50;;;3.30;99.90;;;;;;4984027;28;20839;-57
2021/03/18 05:04:18;;;;;;;14.77;6.90;;;3.30;99.90;;;;;;4983594;28;20900;-59
2021/03/18 05:06:49;;;;;;;13.40;8.93;;;3.40;99.90;;;;;;4983653;28;20812;-58
2021/03/18 05:09:18;;;;;;;12.83;6.83;;;3.40;99.90;;;;;;4983593;28;20796;-59
2021/03/18 05:11:48;;;;;;;14.37;8.30;;;3.40;99.90;;;;;;4983593;28;20978;-57
2021/03/18 05:14:18;;;;;;;11.30;8.47;;;3.40;99.90;;;;;;4983310;28;20483;-62
2021/03/18 05:16:46;;;;;;;14.40;8.83;;;3.40;99.90;;;;;;4982606;28;20800;-59
2021/03/18 05:19:15;;;;;;;16.47;8.47;;;3.40;99.90;;;;;;4982565;28;20459;-59
2021/03/18 05:21:45;;;;;;;15.67;9.13;;;3.40;99.90;;;;;;4982876;28;20860;-59
2021/03/18 05:24:15;;;;;;;13.97;8.30;;;3.50;99.90;;;;;;4984605;28;20831;-59
2021/03/18 05:26:45;;;;;;;13.70;7.40;;;3.50;99.90;;;;;;4983043;28;20828;-56
2021/03/18 05:29:16;;;;;;;14.83;8.80;;;3.50;99.90;;;;;;4982780;28;20784;-59
2021/03/18 05:31:45;;;;;;;11.57;7.90;;;3.50;99.90;;;;;;4982809;28;20833;-60
2021/03/18 05:34:14;;;;;;;14.90;9.07;;;3.50;99.90;;;;;;4983255;28;20867;-58
2021/03/18 05:36:43;;;;;;;14.07;8.83;;;3.50;99.90;;;;;;4982956;28;20491;-59
2021/03/18 05:39:11;;;;;;;12.27;8.20;;;3.50;99.90;;;;;;4983423;28;20840;-59
2021/03/18 05:41:40;;;;;;;12.77;8.50;;;3.50;99.90;;;;;;4983007;28;20827;-58
2021/03/18 05:44:09;;;;;;;12.83;8.43;;;3.50;99.90;;;;;;4983399;28;20792;-59
2021/03/18 05:46:42;;;;;;;12.20;7.70;;;3.70;99.90;;;;;;4982992;28;20863;-58
2021/03/18 05:49:14;;;;;;;10.20;5.73;;;3.70;99.90;;;;;;4983544;28;20976;-57
2021/03/18 05:51:46;;;;;;;10.47;6.30;;;3.70;99.90;;;;;;4983896;28;20471;-57
2021/03/18 05:54:16;;;;;;;9.00;7.17;;;3.60;99.90;;;;;;4982217;28;20824;-58
2021/03/18 05:56:45;;;;;;;8.47;6.23;;;3.70;99.90;;;;;;4982938;28;20864;-58
2021/03/18 05:59:15;;;;;;;12.13;8.37;;;3.60;99.90;;;;;;4982816;28;20743;-56
2021/03/18 06:01:45;;;;;;;8.90;6.20;;;3.60;99.90;;;;;;4982442;28;20803;-59
2021/03/18 06:04:14;;;;;;;12.20;8.00;;;3.70;99.90;;;;;;4982423;28;20755;-59
2021/03/18 06:06:45;;;;;;;12.00;8.87;;;3.60;99.90;;;;;;4982459;28;20785;-60
2021/03/18 06:09:14;;;;;;;10.80;7.60;;;3.60;99.90;;;;;;4982276;28;20935;-60
2021/03/18 06:11:43;;;;;;;9.80;6.70;;;3.60;99.90;;;;;;4982814;28;20482;-60
2021/03/18 06:14:11;;;;;;;12.53;7.30;;;3.60;99.90;;;;;;4982140;28;20866;-56
2021/03/18 06:16:42;;;;;;;12.83;8.37;;;3.70;99.90;;;;;;4983257;28;20832;-58
2021/03/18 06:19:11;;;;;;;15.63;8.27;;;3.70;99.90;;;;;;4982280;28;20796;-57
2021/03/18 06:21:47;;;;;;;14.00;7.77;;;3.70;99.90;;;;;;4981920;28;20770;-59
2021/03/18 06:24:16;;;;;;;10.17;6.63;;;3.80;99.90;;;;;;4982685;28;20832;-59
2021/03/18 06:26:45;;;;;;;13.70;7.43;;;3.90;99.90;;;;;;4982948;28;20928;-59
2021/03/18 06:29:34;;;;;;;15.50;7.10;;;3.90;99.90;;;;;;4982030;28;20828;-54
2021/03/18 06:32:17;;;;;;;13.30;10.27;;;4.00;99.90;;;;;;4981576;28;20772;-59
2021/03/18 06:34:49;;;;;;;13.20;8.30;;;4.10;99.90;;;;;;4981884;28;20933;-58
2021/03/18 06:37:39;;;;;;;14.03;9.53;;;4.10;99.90;;;;;;4981672;28;20946;-59
2021/03/18 06:40:16;;;;;;;13.97;10.23;;;4.20;99.90;;;;;;4981719;28;20741;-59
2021/03/18 06:42:53;;;;;;;16.27;9.23;;;4.20;99.90;;;;;;4981402;28;20553;-59
2021/03/18 06:45:22;;;;;;;11.27;9.30;;;4.20;99.90;;;;;;4980866;28;20843;-59
2021/03/18 06:47:52;;;;;;;14.10;8.83;;;4.30;99.90;;;;;;4981509;28;20610;-57
2021/03/18 06:50:24;;;;;;;12.33;8.40;;;4.30;99.90;;;;;;4981649;28;20812;-57
2021/03/18 06:52:52;;;;;;;12.50;8.80;;;4.40;99.90;;;;;;4981457;28;20542;-57
2021/03/18 06:55:30;;;;;;;14.40;10.07;;;4.40;99.90;;;;;;4980510;28;20859;-59
2021/03/18 06:58:19;;;;;;;16.33;8.80;;;4.40;99.90;;;;;;4981195;28;20824;-59
2021/03/18 07:00:49;;;;;;;14.23;8.37;;;4.50;99.90;;;;;;4980849;28;20838;-59
2021/03/18 07:03:29;;;;;;;10.53;7.90;;;4.40;99.90;;;;;;4981428;28;20807;-58
2021/03/18 07:06:00;;;;;;;9.20;7.03;;;4.40;99.90;;;;;;4980561;28;20545;-59
2021/03/18 07:08:30;;;;;;;13.20;7.43;;;4.40;99.90;;;;;;4980909;28;20754;-59
2021/03/18 07:11:00;;;;;;;10.60;6.80;;;4.40;99.90;;;;;;4980069;28;20776;-59
2021/03/18 07:13:31;;;;;;;17.10;8.67;;;4.50;99.90;;;;;;4980292;28;20473;-57
2021/03/18 07:16:00;;;;;;;10.53;7.70;;;4.50;99.90;;;;;;4979667;28;20858;-59
2021/03/18 07:18:28;;;;;;;11.63;8.20;;;4.50;99.90;;;;;;4979858;28;20471;-58
2021/03/18 07:21:01;;;;;;;14.07;7.00;;;4.60;99.90;;;;;;4994281;28;20454;-58
2021/03/18 07:23:39;;;;;;;11.50;6.60;;;4.60;99.90;;;;;;4993175;28;20477;-58
2021/03/18 07:26:25;;;;;;;13.43;6.73;;;4.70;99.90;;;;;;4992525;28;20467;-58
2021/03/18 07:28:55;;;;;;;11.03;8.00;;;4.60;99.90;;;;;;4989182;28;20943;-53
2021/03/18 07:31:23;;;;;;;9.83;6.77;;;4.70;99.90;;;;;;4989866;28;20780;-56
2021/03/18 07:33:52;;;;;;;9.60;7.63;;;4.70;99.90;;;;;;4978493;28;20480;-59
2021/03/18 07:36:22;;;;;;;11.87;7.97;;;4.70;99.90;;;;;;4961807;29;20509;-59
2021/03/18 07:38:51;;;;;;;11.80;7.67;;;4.80;99.90;;;;;;4959846;29;20764;-59
2021/03/18 07:41:20;;;;;;;11.10;7.53;;;4.80;99.90;;;;;;4960441;29;20759;-57
2021/03/18 07:43:49;;;;;;;11.17;7.13;;;4.90;99.90;;;;;;4973516;28;20779;-60
2021/03/18 07:46:19;;;;;;;11.40;7.50;;;4.90;99.90;;;;;;4990384;28;20514;-44
2021/03/18 07:48:51;;;;;;;8.43;6.60;;;4.90;99.90;;;;;;4988084;28;20482;-47
2021/03/18 07:51:22;;;;;;;9.97;7.63;;;4.90;99.90;;;;;;4994500;28;20518;-43
2021/03/18 07:53:53;;;;;;;9.57;6.27;;;4.90;99.90;;;;;;4993868;28;20995;-46
2021/03/18 07:56:23;;;;;;;9.73;6.07;;;5.00;99.90;;;;;;4987165;28;20486;-49
2021/03/18 07:58:51;;;;;;;17.03;9.47;;;5.00;99.90;;;;;;4986348;28;20739;-44
2021/03/18 08:01:40;;;;;;;11.80;7.03;;;5.10;99.90;;;;;;4984816;28;20466;-48
2021/03/18 08:04:12;;;;;;;10.87;8.40;;;5.30;99.90;;;;;;4983683;28;20758;-47
2021/03/18 08:06:49;;;;;;;11.73;7.70;;;5.60;99.90;;;;;;4985794;28;20454;-44
2021/03/18 08:09:39;;;;;;;10.63;6.67;;;5.90;99.90;;;;;;4992405;28;20472;-46
2021/03/18 08:12:07;;;;;;;12.53;7.87;;;6.30;99.90;;;;;;4984477;28;20447;-48
2021/03/18 08:14:36;;;;;;;10.23;6.30;;;6.50;99.90;;;;;;4981516;28;20506;-44
2021/03/18 08:17:27;;;;;;;9.47;6.77;;;6.70;99.90;;;;;;4978014;28;20905;-46
2021/03/18 08:19:55;;;;;;;10.53;7.03;;;6.70;99.90;;;;;;4981788;28;20823;-44
2021/03/18 08:22:32;;;;;;;10.60;6.70;;;6.70;99.90;;;;;;4981223;28;20459;-43
2021/03/18 08:25:22;;;;;;;26.70;6.67;;;6.80;99.90;;;;;;4980882;28;20799;-45
2021/03/18 08:27:50;;;;;;;10.97;7.00;;;6.90;99.90;;;;;;4980836;28;20786;-46
2021/03/18 08:30:24;;;;;;;11.27;7.30;;;7.10;99.90;;;;;;4981057;28;20537;-42
2021/03/18 08:32:52;;;;;;;10.50;7.30;;;7.40;99.90;;;;;;4980959;28;20780;-46
2021/03/18 08:35:31;;;;;;;11.07;6.57;;;7.60;99.90;;;;;;4982788;28;20862;-42
2021/03/18 08:38:18;;;;;;;10.40;5.90;;;7.90;99.90;;;;;;4981615;28;20927;-46
2021/03/18 08:41:01;;;;;;;11.17;6.53;;;9.00;99.90;;;;;;4979459;28;20762;-46
2021/03/18 08:43:29;;;;;;;8.50;6.20;;;10.70;99.90;;;;;;4979214;28;20836;-42
2021/03/18 08:45:58;;;;;;;8.63;6.43;;;12.10;99.90;;;;;;4978756;28;20815;-45
2021/03/18 08:48:26;;;;;;;10.90;7.37;;;13.00;99.90;;;;;;4978343;28;20458;-47
2021/03/18 08:51:03;;;;;;;13.10;7.33;;;13.40;99.90;;;;;;4978115;28;20471;-49
2021/03/18 08:53:44;;;;;;;8.90;7.40;;;14.30;98.70;;;;;;4977865;28;20435;-49
2021/03/18 08:56:13;;;;;;;10.97;8.07;;;15.40;94.20;;;;;;4977861;28;20788;-49
2021/03/18 08:58:54;;;;;;;10.10;7.70;;;16.40;86.20;;;;;;4977508;28;20455;-48
2021/03/18 09:01:25;;;;;;;10.83;7.83;;;16.70;77.60;;;;;;4972184;28;21095;-47
2021/03/18 09:03:58;;;;;;;10.37;8.13;;;16.60;74.80;;;;;;4977487;28;20836;-47
2021/03/18 09:06:30;;;;;;;11.80;8.70;;;16.60;74.10;;;;;;4977420;28;21028;-46
2021/03/18 09:09:01;;;;;;;10.00;8.43;;;16.90;72.40;;;;;;4974643;28;20920;-48
2021/03/18 09:11:30;;;;;;;8.30;7.30;;;17.30;68.30;;;;;;4978234;28;21026;-50
2021/03/18 09:13:59;;;;;;;10.20;7.00;;;16.90;66.20;;;;;;4977249;28;20756;-47
2021/03/18 09:16:28;;;;;;;10.43;7.07;;;16.00;65.50;;;;;;4977447;28;20470;-49
2021/03/18 09:19:02;;;;;;;9.67;6.57;;;14.70;68.30;;;;;;4977874;28;20558;-48
2021/03/18 09:21:39;;;;;;;10.47;6.77;;;13.50;74.70;;;;;;4978046;28;20783;-46
2021/03/18 09:24:11;;;;;;;11.70;5.37;;;12.60;78.30;;;;;;4978759;28;20817;-48
2021/03/18 09:26:41;;;;;;;12.43;6.40;;;11.60;83.70;;;;;;4984083;28;21022;-42
2021/03/18 09:29:09;;;;;;;9.27;6.00;;;10.70;90.60;;;;;;4991974;28;20932;-44
2021/03/18 09:31:38;;;;;;;11.87;6.63;;;9.80;97.00;;;;;;4983043;28;20811;-43
2021/03/18 09:34:07;;;;;;;7.63;5.63;;;9.00;99.90;;;;;;4981680;28;20801;-45
2021/03/18 09:36:35;;;;;;;7.67;4.60;;;8.60;99.90;;;;;;4990461;28;20483;-47
2021/03/18 09:39:06;;;;;;;8.00;5.70;;;8.10;99.90;;;;;;5009463;28;20435;-49
2021/03/18 09:41:36;;;;;;;9.10;6.80;;;7.70;99.90;;;;;;5013633;28;20434;-49
2021/03/18 09:44:11;;;;;;;11.43;6.90;;;7.50;99.90;;;;;;5014937;28;20469;-46
2021/03/18 09:46:39;;;;;;;9.37;6.13;;;7.40;99.90;;;;;;5017342;28;20461;-45
2021/03/18 09:49:08;;;;;;;10.90;6.90;;;7.20;99.90;;;;;;5013998;28;20942;-47
2021/03/18 09:51:38;;;;;;;9.57;7.00;;;7.00;99.90;;;;;;5013668;28;20465;-45
2021/03/18 09:54:08;;;;;;;10.60;6.67;;;6.90;99.90;;;;;;5016703;28;20489;-44
2021/03/18 09:56:38;;;;;;;9.50;7.30;;;6.90;99.90;;;;;;5017828;28;20509;-48
2021/03/18 09:59:11;;;;;;;9.80;6.40;;;7.00;99.90;;;;;;5015113;28;20449;-43
2021/03/18 10:01:39;;;;;;;8.60;5.77;;;7.00;99.90;;;;;;5002414;28;20979;-47
2021/03/18 10:04:08;;;;;;;8.60;5.53;;;7.10;99.90;;;;;;5014222;28;20513;-46
2021/03/18 10:06:37;;;;;;;8.73;6.67;;;7.10;99.90;;;;;;5002027;28;20446;-53
2021/03/18 10:09:26;;;;;;;10.00;5.33;;;7.10;99.90;;;;;;5017663;28;20449;-46
2021/03/18 10:12:00;;;;;;;10.80;7.20;;;7.10;99.90;;;;;;5014126;28;20899;-57
2021/03/18 10:14:32;;;;;;;9.00;5.43;;;7.10;99.90;;;;;;5006736;28;20479;-56
2021/03/18 10:17:01;;;;;;;8.33;5.40;;;7.10;99.90;;;;;;5003212;28;20455;-57
2021/03/18 10:19:31;;;;;;;9.70;5.40;;;7.40;99.90;;;;;;5011006;28;20446;-55
2021/03/18 10:22:01;;;;;;;7.20;5.37;;;7.70;99.90;;;;;;5005747;28;20443;-57
2021/03/18 10:24:28;;;;;;;7.63;5.40;;;8.40;99.90;;;;;;5005542;28;20461;-58
2021/03/18 10:27:05;;;;;;;6.30;5.30;;;9.20;99.90;;;;;;5011784;28;20446;-58
2021/03/18 10:29:36;;;;;;;8.07;5.83;;;9.70;99.90;;;;;;5091451;23;20560;-59
2021/03/18 10:32:15;;;;;;;10.03;7.00;;;10.30;99.90;;;;;;5028383;23;20952;-58
2021/03/18 10:34:54;;;;;;;10.10;8.73;;;10.20;99.90;;;;;;5011414;28;20469;-57
2021/03/18 10:37:26;;;;;;;9.93;7.70;;;10.30;99.90;;;;;;5016019;28;20481;-58
2021/03/18 10:40:09;;;;;;;12.97;8.37;;;10.50;99.90;;;;;;5009227;28;20526;-57
2021/03/18 10:42:36;;;;;;;10.40;7.50;;;11.40;99.90;;;;;;5002854;28;20455;-55
2021/03/18 10:45:22;;;;;;;9.23;6.00;;;12.00;99.90;;;;;;5009883;28;20465;-60
2021/03/18 10:47:51;;;;;;;14.33;6.47;;;12.80;99.90;;;;;;5013614;28;20514;-58
2021/03/18 10:50:22;;;;;;;10.90;7.80;;;13.50;99.90;;;;;;4998430;28;20459;-57
2021/03/18 10:52:54;;;;;;;8.03;5.43;;;13.60;99.90;;;;;;5007310;28;20511;-58
2021/03/18 10:55:26;;;;;;;10.00;6.63;;;13.50;98.90;;;;;;5012894;28;20481;-62
2021/03/18 10:58:01;;;;;;;8.60;6.23;;;13.50;99.10;;;;;;5009199;28;20439;-58
2021/03/18 11:00:30;;;;;;;6.80;5.23;;;13.70;97.30;;;;;;5002320;28;20456;-60
2021/03/18 11:03:05;;;;;;;7.13;4.73;;;13.60;93.30;;;;;;5007947;28;20478;-58
2021/03/18 11:05:35;;;;;;;7.00;5.90;;;13.10;92.70;;;;;;5010282;28;20485;-58
2021/03/18 11:08:03;;;;;;;6.20;4.63;;;12.40;93.50;;;;;;5004282;28;20454;-56
2021/03/18 11:10:33;;;;;;;7.07;4.30;;;11.90;95.80;;;;;;5004352;28;20782;-59
2021/03/18 11:13:03;;;;;;;10.20;5.23;;;11.80;96.70;;;;;;5005626;28;20465;-57
2021/03/18 11:15:46;;;;;;;8.23;5.53;;;11.60;96.10;;;;;;5016610;28;20505;-58
2021/03/18 11:18:13;;;;;;;8.50;5.47;;;11.40;97.50;;;;;;5012793;28;20467;-58
2021/03/18 11:20:41;;;;;;;9.57;5.73;;;11.30;97.40;;;;;;4998086;28;20443;-59
2021/03/18 11:23:09;;;;;;;7.07;5.57;;;11.10;98.80;;;;;;5002994;28;20446;-58
2021/03/18 11:25:37;;;;;;;6.97;4.80;;;10.80;99.90;;;;;;5005488;28;20438;-56
2021/03/18 11:28:05;;;;;;;7.10;5.40;;;10.50;99.90;;;;;;5016563;28;20465;-58
2021/03/18 11:30:35;;;;;;;7.53;6.40;;;10.20;99.90;;;;;;5010623;28;20453;-59
2021/03/18 11:33:15;;;;;;;7.47;5.80;;;9.90;99.90;;;;;;5016283;28;20529;-53
2021/03/18 11:35:44;;;;;;;7.20;4.53;;;9.70;99.90;;;;;;5007935;28;20458;-55
2021/03/18 11:38:12;;;;;;;5.77;4.40;;;9.80;99.90;;;;;;5017625;28;20418;-58
2021/03/18 11:40:39;;;;;;;6.90;4.90;;;9.70;99.90;;;;;;5008953;28;20454;-58
2021/03/18 11:43:07;;;;;;;5.27;4.50;;;9.70;99.90;;;;;;5006892;28;20438;-60
2021/03/18 11:45:35;;;;;;;6.50;5.40;;;9.70;99.90;;;;;;5000703;28;20470;-58
2021/03/18 11:48:06;;;;;;;8.60;4.83;;;9.40;99.90;;;;;;4995775;28;20458;-55
2021/03/18 11:50:35;;;;;;;10.20;4.07;;;9.20;99.90;;;;;;4995923;28;20779;-53
2021/03/18 11:53:03;;;;;;;8.90;5.00;;;9.10;99.90;;;;;;5008880;28;20517;-51
2021/03/18 11:55:31;;;;;;;10.80;5.40;;;9.10;99.90;;;;;;5006423;28;20474;-59
2021/03/18 11:57:59;;;;;;;6.60;4.40;;;9.10;99.90;;;;;;5008793;28;20446;-57
2021/03/18 12:00:28;;;;;;;8.40;4.70;;;9.10;99.90;;;;;;5010505;28;20441;-56
2021/03/18 12:02:58;;;;;;;5.20;4.60;;;9.10;99.90;;;;;;5004909;28;20469;-55
2021/03/18 12:05:26;;;;;;;5.40;4.80;;;9.00;99.90;;;;;;5009256;28;20520;-55
2021/03/18 12:07:55;;;;;;;6.00;4.10;;;8.80;99.90;;;;;;5000349;28;20522;-53
2021/03/18 12:10:24;;;;;;;5.97;4.13;;;8.60;99.90;;;;;;5003769;28;20446;-50
2021/03/18 12:12:53;;;;;;;8.03;4.67;;;8.40;99.90;;;;;;5009238;28;20519;-54
2021/03/18 12:15:21;;;;;;;8.43;5.23;;;8.30;99.90;;;;;;5009442;28;20484;-57
2021/03/18 12:17:50;;;;;;;6.87;4.13;;;8.30;99.90;;;;;;5012998;28;20522;-56
2021/03/18 12:20:21;;;;;;;9.33;4.03;;;8.30;99.90;;;;;;4998994;28;20763;-57
2021/03/18 12:22:49;;;;;;;5.27;4.37;;;8.40;99.90;;;;;;5009040;28;20450;-54
2021/03/18 12:25:21;;;;;;;5.90;3.93;;;8.40;99.90;;;;;;5004750;28;20455;-53
2021/03/18 12:27:54;;;;;;;5.83;3.77;;;8.50;99.90;;;;;;5014138;28;20458;-55
2021/03/18 12:30:23;;;;;;;4.00;3.33;;;8.50;99.90;;;;;;5017586;28;20508;-59
2021/03/18 12:32:53;;;;;;;8.90;4.00;;;8.70;99.90;;;;;;5003919;28;20477;-55
2021/03/18 12:35:23;;;;;;;5.67;4.40;;;8.90;99.90;;;;;;5012789;28;20462;-56
2021/03/18 12:37:53;;;;;;;5.30;3.50;;;9.00;99.90;;;;;;5113142;23;20458;-54
2021/03/18 12:40:24;;;;;;;7.70;4.70;;;9.00;99.90;;;;;;4991413;28;20868;-52
2021/03/18 12:42:52;;;;;;;5.57;3.40;;;8.90;99.90;;;;;;4992170;28;20813;-50
2021/03/18 12:45:21;;;;;;;5.97;4.07;;;9.00;99.90;;;;;;4999822;28;20455;-54
2021/03/18 12:47:50;;;;;;;5.47;3.90;;;9.20;99.90;;;;;;5019930;28;20730;-51
2021/03/18 12:50:21;;;;;;;6.30;4.10;;;9.30;99.90;;;;;;5007035;28;20527;-49
2021/03/18 12:52:50;;;;;;;3.80;3.27;;;9.50;99.90;;;;;;5002663;28;20435;-56
2021/03/18 12:55:19;;;;;;;5.00;3.00;;;9.60;99.90;;;;;;5006096;28;20485;-55
2021/03/18 12:57:49;;;;;;;3.90;3.30;;;9.70;99.90;;;;;;5019208;28;20478;-56
2021/03/18 13:00:19;;;;;;;5.50;4.13;;;9.70;99.90;;;;;;5010518;28;20431;-52
2021/03/18 13:02:47;;;;;;;5.20;3.53;;;9.70;99.90;;;;;;5003015;28;20512;-54
2021/03/18 13:05:15;;;;;;;6.80;3.70;;;9.80;99.90;;;;;;5007451;28;20480;-53
2021/03/18 13:07:42;;;;;;;5.27;3.47;;;9.80;99.90;;;;;;5005863;28;20486;-52
2021/03/18 13:10:12;;;;;;;5.20;3.67;;;9.60;99.90;;;;;;5012471;28;20426;-53
2021/03/18 13:12:40;;;;;;;3.87;3.47;;;9.30;99.90;;;;;;5012311;28;20522;-55
2021/03/18 13:15:12;;;;;;;5.97;3.47;;;9.10;99.90;;;;;;5003420;28;20477;-57